sensor_id;sensor_type;location;lat;lon;timestamp;P1;durP1;ratioP1;P2;durP2;ratioP2
56927;SDS011;60850;52.502;13.426;2023-05-13T00:02:10;8.50;;;3.72;;
56927;SDS011;60850;52.502;13.426;2023-05-13T00:04:38;8.43;;;4.13;;
56927;SDS011;60850;52.502;13.426;2023-05-13T00:07:05;6.53;;;3.70;;
56927;SDS011;60850;52.502;13.426;2023-05-13T00:09:32;6.93;;;3.90;;
56927;SDS011;60850;52.502;13.426;2023-05-13T00:11:59;5.53;;;3.67;;
56927;SDS011;60850;52.502;13.426;2023-05-13T00:14:27;6.63;;;3.97;;
56927;SDS011;60850;52.502;13.426;2023-05-13T00:16:54;9.73;;;3.78;;
56927;SDS011;60850;52.502;13.426;2023-05-13T00:19:22;5.57;;;3.67;;
56927;SDS011;60850;52.502;13.426;2023-05-13T00:21:51;6.63;;;3.75;;
56927;SDS011;60850;52.502;13.426;2023-05-13T00:24:18;5.88;;;3.65;;
56927;SDS011;60850;52.502;13.426;2023-05-13T00:26:45;7.95;;;4.10;;
56927;SDS011;60850;52.502;13.426;2023-05-13T00:29:11;7.50;;;3.92;;
56927;SDS011;60850;52.502;13.426;2023-05-13T00:31:38;6.97;;;4.20;;
56927;SDS011;60850;52.502;13.426;2023-05-13T00:34:06;5.53;;;3.97;;
56927;SDS011;60850;52.502;13.426;2023-05-13T00:36:32;5.20;;;3.60;;
56927;SDS011;60850;52.502;13.426;2023-05-13T00:39:01;7.70;;;4.00;;
56927;SDS011;60850;52.502;13.426;2023-05-13T00:41:28;7.40;;;3.83;;
56927;SDS011;60850;52.502;13.426;2023-05-13T00:43:55;7.38;;;4.70;;
56927;SDS011;60850;52.502;13.426;2023-05-13T00:46:22;6.18;;;3.65;;
56927;SDS011;60850;52.502;13.426;2023-05-13T00:48:49;8.50;;;4.03;;
56927;SDS011;60850;52.502;13.426;2023-05-13T00:51:16;8.00;;;3.80;;
56927;SDS011;60850;52.502;13.426;2023-05-13T00:53:43;6.75;;;3.90;;
56927;SDS011;60850;52.502;13.426;2023-05-13T00:56:13;7.93;;;4.28;;
56927;SDS011;60850;52.502;13.426;2023-05-13T00:58:44;7.22;;;4.18;;
56927;SDS011;60850;52.502;13.426;2023-05-13T01:01:12;8.60;;;4.25;;
56927;SDS011;60850;52.502;13.426;2023-05-13T01:03:44;7.95;;;4.03;;
56927;SDS011;60850;52.502;13.426;2023-05-13T01:08:46;9.82;;;4.35;;
56927;SDS011;60850;52.502;13.426;2023-05-13T01:11:21;8.93;;;4.13;;
56927;SDS011;60850;52.502;13.426;2023-05-13T01:14:00;5.80;;;3.83;;
56927;SDS011;60850;52.502;13.426;2023-05-13T01:16:30;10.23;;;4.15;;
56927;SDS011;60850;52.502;13.426;2023-05-13T01:19:01;6.18;;;4.10;;
56927;SDS011;60850;52.502;13.426;2023-05-13T01:21:35;8.05;;;4.20;;
56927;SDS011;60850;52.502;13.426;2023-05-13T01:24:04;6.05;;;4.22;;
56927;SDS011;60850;52.502;13.426;2023-05-13T01:26:32;6.95;;;4.10;;
56927;SDS011;60850;52.502;13.426;2023-05-13T01:28:58;8.35;;;4.20;;
56927;SDS011;60850;52.502;13.426;2023-05-13T01:31:25;6.43;;;4.22;;
56927;SDS011;60850;52.502;13.426;2023-05-13T01:33:53;9.13;;;4.70;;
56927;SDS011;60850;52.502;13.426;2023-05-13T01:36:20;4.68;;;3.80;;
56927;SDS011;60850;52.502;13.426;2023-05-13T01:38:48;5.72;;;3.90;;
56927;SDS011;60850;52.502;13.426;2023-05-13T01:41:16;7.82;;;3.65;;
56927;SDS011;60850;52.502;13.426;2023-05-13T01:43:43;10.73;;;5.03;;
56927;SDS011;60850;52.502;13.426;2023-05-13T01:46:10;7.05;;;3.85;;
56927;SDS011;60850;52.502;13.426;2023-05-13T01:48:38;10.38;;;3.95;;
56927;SDS011;60850;52.502;13.426;2023-05-13T01:51:05;7.50;;;4.32;;
56927;SDS011;60850;52.502;13.426;2023-05-13T01:53:32;9.43;;;3.80;;
56927;SDS011;60850;52.502;13.426;2023-05-13T01:56:00;8.82;;;3.90;;
56927;SDS011;60850;52.502;13.426;2023-05-13T01:58:27;8.38;;;3.97;;
56927;SDS011;60850;52.502;13.426;2023-05-13T02:00:54;7.43;;;4.25;;
56927;SDS011;60850;52.502;13.426;2023-05-13T02:03:21;7.32;;;4.60;;
56927;SDS011;60850;52.502;13.426;2023-05-13T02:05:48;5.00;;;3.88;;
56927;SDS011;60850;52.502;13.426;2023-05-13T02:08:15;8.38;;;4.38;;
56927;SDS011;60850;52.502;13.426;2023-05-13T02:10:42;10.23;;;4.25;;
56927;SDS011;60850;52.502;13.426;2023-05-13T02:13:10;7.15;;;4.63;;
56927;SDS011;60850;52.502;13.426;2023-05-13T02:15:37;6.20;;;4.30;;
56927;SDS011;60850;52.502;13.426;2023-05-13T02:18:05;10.38;;;4.43;;
56927;SDS011;60850;52.502;13.426;2023-05-13T02:20:32;8.93;;;4.45;;
56927;SDS011;60850;52.502;13.426;2023-05-13T02:22:59;6.13;;;4.40;;
56927;SDS011;60850;52.502;13.426;2023-05-13T02:25:26;8.05;;;4.10;;
56927;SDS011;60850;52.502;13.426;2023-05-13T02:27:52;9.70;;;4.55;;
56927;SDS011;60850;52.502;13.426;2023-05-13T02:30:21;7.38;;;4.13;;
56927;SDS011;60850;52.502;13.426;2023-05-13T02:32:51;6.00;;;4.40;;
56927;SDS011;60850;52.502;13.426;2023-05-13T02:35:18;8.70;;;4.47;;
56927;SDS011;60850;52.502;13.426;2023-05-13T02:37:46;9.55;;;4.35;;
56927;SDS011;60850;52.502;13.426;2023-05-13T02:40:13;9.40;;;4.28;;
56927;SDS011;60850;52.502;13.426;2023-05-13T02:42:40;8.18;;;4.72;;
56927;SDS011;60850;52.502;13.426;2023-05-13T02:45:08;10.38;;;4.57;;
56927;SDS011;60850;52.502;13.426;2023-05-13T02:47:37;9.60;;;4.70;;
56927;SDS011;60850;52.502;13.426;2023-05-13T02:50:05;6.30;;;4.35;;
56927;SDS011;60850;52.502;13.426;2023-05-13T02:52:34;9.80;;;4.68;;
56927;SDS011;60850;52.502;13.426;2023-05-13T02:55:01;8.43;;;4.55;;
56927;SDS011;60850;52.502;13.426;2023-05-13T02:57:28;9.02;;;4.63;;
56927;SDS011;60850;52.502;13.426;2023-05-13T02:59:55;7.25;;;4.25;;
56927;SDS011;60850;52.502;13.426;2023-05-13T03:02:22;6.13;;;4.10;;
56927;SDS011;60850;52.502;13.426;2023-05-13T03:04:50;8.18;;;4.38;;
56927;SDS011;60850;52.502;13.426;2023-05-13T03:07:19;10.60;;;4.40;;
56927;SDS011;60850;52.502;13.426;2023-05-13T03:09:46;6.35;;;4.25;;
56927;SDS011;60850;52.502;13.426;2023-05-13T03:12:12;7.60;;;4.28;;
56927;SDS011;60850;52.502;13.426;2023-05-13T03:14:39;6.65;;;3.95;;
56927;SDS011;60850;52.502;13.426;2023-05-13T03:17:08;7.90;;;5.00;;
56927;SDS011;60850;52.502;13.426;2023-05-13T03:19:36;6.70;;;4.30;;
56927;SDS011;60850;52.502;13.426;2023-05-13T03:22:05;9.15;;;4.40;;
56927;SDS011;60850;52.502;13.426;2023-05-13T03:24:32;7.85;;;4.40;;
56927;SDS011;60850;52.502;13.426;2023-05-13T03:26:58;7.80;;;4.22;;
56927;SDS011;60850;52.502;13.426;2023-05-13T03:29:26;9.77;;;4.30;;
56927;SDS011;60850;52.502;13.426;2023-05-13T03:31:52;7.93;;;4.15;;
56927;SDS011;60850;52.502;13.426;2023-05-13T03:34:20;7.82;;;4.70;;
56927;SDS011;60850;52.502;13.426;2023-05-13T03:36:46;8.32;;;4.38;;
56927;SDS011;60850;52.502;13.426;2023-05-13T03:39:15;6.72;;;4.30;;
56927;SDS011;60850;52.502;13.426;2023-05-13T03:41:41;6.72;;;4.28;;
56927;SDS011;60850;52.502;13.426;2023-05-13T03:44:10;5.93;;;4.18;;
56927;SDS011;60850;52.502;13.426;2023-05-13T03:46:36;9.95;;;4.50;;
56927;SDS011;60850;52.502;13.426;2023-05-13T03:49:03;7.53;;;4.30;;
56927;SDS011;60850;52.502;13.426;2023-05-13T03:51:30;8.38;;;4.43;;
56927;SDS011;60850;52.502;13.426;2023-05-13T03:53:58;5.15;;;4.15;;
56927;SDS011;60850;52.502;13.426;2023-05-13T03:56:27;9.77;;;4.63;;
56927;SDS011;60850;52.502;13.426;2023-05-13T03:58:54;7.05;;;4.30;;
56927;SDS011;60850;52.502;13.426;2023-05-13T04:01:20;7.00;;;4.78;;
56927;SDS011;60850;52.502;13.426;2023-05-13T04:03:47;7.63;;;4.53;;
56927;SDS011;60850;52.502;13.426;2023-05-13T04:06:14;8.07;;;4.78;;
56927;SDS011;60850;52.502;13.426;2023-05-13T04:08:41;7.57;;;4.43;;
56927;SDS011;60850;52.502;13.426;2023-05-13T04:11:08;6.38;;;4.50;;
56927;SDS011;60850;52.502;13.426;2023-05-13T04:13:37;8.07;;;4.70;;
56927;SDS011;60850;52.502;13.426;2023-05-13T04:16:04;9.02;;;4.43;;
56927;SDS011;60850;52.502;13.426;2023-05-13T04:18:32;9.05;;;4.93;;
56927;SDS011;60850;52.502;13.426;2023-05-13T04:20:59;7.60;;;4.40;;
56927;SDS011;60850;52.502;13.426;2023-05-13T04:23:30;10.80;;;4.15;;
56927;SDS011;60850;52.502;13.426;2023-05-13T04:25:57;8.65;;;4.70;;
56927;SDS011;60850;52.502;13.426;2023-05-13T04:28:24;7.68;;;4.25;;
56927;SDS011;60850;52.502;13.426;2023-05-13T04:30:52;7.05;;;4.47;;
56927;SDS011;60850;52.502;13.426;2023-05-13T04:33:19;7.15;;;3.97;;
56927;SDS011;60850;52.502;13.426;2023-05-13T04:35:46;10.20;;;4.30;;
56927;SDS011;60850;52.502;13.426;2023-05-13T04:38:13;8.02;;;4.13;;
56927;SDS011;60850;52.502;13.426;2023-05-13T04:40:40;7.60;;;4.43;;
56927;SDS011;60850;52.502;13.426;2023-05-13T04:43:09;8.77;;;3.78;;
56927;SDS011;60850;52.502;13.426;2023-05-13T04:45:35;8.82;;;4.47;;
56927;SDS011;60850;52.502;13.426;2023-05-13T04:48:05;7.38;;;4.47;;
56927;SDS011;60850;52.502;13.426;2023-05-13T04:50:32;15.63;;;4.88;;
56927;SDS011;60850;52.502;13.426;2023-05-13T04:52:59;7.72;;;4.20;;
56927;SDS011;60850;52.502;13.426;2023-05-13T04:55:26;9.63;;;4.53;;
56927;SDS011;60850;52.502;13.426;2023-05-13T04:57:53;6.60;;;4.22;;
56927;SDS011;60850;52.502;13.426;2023-05-13T05:00:19;9.45;;;4.70;;
56927;SDS011;60850;52.502;13.426;2023-05-13T05:02:46;9.32;;;4.00;;
56927;SDS011;60850;52.502;13.426;2023-05-13T05:05:15;7.28;;;4.68;;
56927;SDS011;60850;52.502;13.426;2023-05-13T05:07:42;5.95;;;3.88;;
56927;SDS011;60850;52.502;13.426;2023-05-13T05:10:09;7.10;;;4.18;;
56927;SDS011;60850;52.502;13.426;2023-05-13T05:12:36;7.68;;;4.63;;
56927;SDS011;60850;52.502;13.426;2023-05-13T05:15:03;7.00;;;4.57;;
56927;SDS011;60850;52.502;13.426;2023-05-13T05:17:31;6.25;;;4.10;;
56927;SDS011;60850;52.502;13.426;2023-05-13T05:19:59;8.25;;;3.85;;
56927;SDS011;60850;52.502;13.426;2023-05-13T05:22:27;6.03;;;4.10;;
56927;SDS011;60850;52.502;13.426;2023-05-13T05:24:54;6.65;;;4.45;;
56927;SDS011;60850;52.502;13.426;2023-05-13T05:27:21;8.20;;;4.00;;
56927;SDS011;60850;52.502;13.426;2023-05-13T05:29:48;6.35;;;4.40;;
56927;SDS011;60850;52.502;13.426;2023-05-13T05:32:15;9.88;;;3.88;;
56927;SDS011;60850;52.502;13.426;2023-05-13T05:34:41;6.28;;;3.75;;
56927;SDS011;60850;52.502;13.426;2023-05-13T05:37:09;5.75;;;4.05;;
56927;SDS011;60850;52.502;13.426;2023-05-13T05:39:37;6.05;;;3.60;;
56927;SDS011;60850;52.502;13.426;2023-05-13T05:42:05;6.05;;;3.85;;
56927;SDS011;60850;52.502;13.426;2023-05-13T05:44:32;5.80;;;3.60;;
56927;SDS011;60850;52.502;13.426;2023-05-13T05:46:59;3.63;;;3.33;;
56927;SDS011;60850;52.502;13.426;2023-05-13T05:49:26;5.07;;;3.55;;
56927;SDS011;60850;52.502;13.426;2023-05-13T05:51:54;4.65;;;3.67;;
56927;SDS011;60850;52.502;13.426;2023-05-13T05:54:20;6.60;;;3.50;;
56927;SDS011;60850;52.502;13.426;2023-05-13T05:56:49;6.28;;;3.40;;
56927;SDS011;60850;52.502;13.426;2023-05-13T05:59:16;7.22;;;3.63;;
56927;SDS011;60850;52.502;13.426;2023-05-13T06:01:43;6.35;;;3.60;;
56927;SDS011;60850;52.502;13.426;2023-05-13T06:04:10;7.13;;;3.70;;
56927;SDS011;60850;52.502;13.426;2023-05-13T06:06:37;5.90;;;3.42;;
56927;SDS011;60850;52.502;13.426;2023-05-13T06:09:06;6.15;;;3.40;;
56927;SDS011;60850;52.502;13.426;2023-05-13T06:11:33;6.38;;;3.33;;
56927;SDS011;60850;52.502;13.426;2023-05-13T06:14:01;6.32;;;3.33;;
56927;SDS011;60850;52.502;13.426;2023-05-13T06:16:28;3.97;;;3.13;;
56927;SDS011;60850;52.502;13.426;2023-05-13T06:18:55;5.45;;;3.65;;
56927;SDS011;60850;52.502;13.426;2023-05-13T06:21:22;6.05;;;2.95;;
56927;SDS011;60850;52.502;13.426;2023-05-13T06:23:49;6.18;;;2.88;;
56927;SDS011;60850;52.502;13.426;2023-05-13T06:26:16;5.90;;;3.00;;
56927;SDS011;60850;52.502;13.426;2023-05-13T06:28:43;5.85;;;3.08;;
56927;SDS011;60850;52.502;13.426;2023-05-13T06:31:11;3.88;;;2.90;;
56927;SDS011;60850;52.502;13.426;2023-05-13T06:33:38;4.75;;;2.90;;
56927;SDS011;60850;52.502;13.426;2023-05-13T06:36:05;6.28;;;3.33;;
56927;SDS011;60850;52.502;13.426;2023-05-13T06:38:33;3.22;;;2.90;;
56927;SDS011;60850;52.502;13.426;2023-05-13T06:41:00;4.05;;;2.90;;
56927;SDS011;60850;52.502;13.426;2023-05-13T06:43:27;7.28;;;2.92;;
56927;SDS011;60850;52.502;13.426;2023-05-13T06:45:54;5.88;;;3.83;;
56927;SDS011;60850;52.502;13.426;2023-05-13T06:48:22;6.13;;;2.35;;
56927;SDS011;60850;52.502;13.426;2023-05-13T06:50:49;8.52;;;3.88;;
56927;SDS011;60850;52.502;13.426;2023-05-13T06:53:16;10.15;;;3.15;;
56927;SDS011;60850;52.502;13.426;2023-05-13T06:55:43;5.18;;;3.25;;
56927;SDS011;60850;52.502;13.426;2023-05-13T06:58:10;5.95;;;2.80;;
56927;SDS011;60850;52.502;13.426;2023-05-13T07:00:37;6.35;;;2.70;;
56927;SDS011;60850;52.502;13.426;2023-05-13T07:03:05;6.18;;;2.55;;
56927;SDS011;60850;52.502;13.426;2023-05-13T07:05:34;5.22;;;2.67;;
56927;SDS011;60850;52.502;13.426;2023-05-13T07:08:01;5.68;;;2.67;;
56927;SDS011;60850;52.502;13.426;2023-05-13T07:10:31;4.55;;;2.40;;
56927;SDS011;60850;52.502;13.426;2023-05-13T07:12:59;4.47;;;2.75;;
56927;SDS011;60850;52.502;13.426;2023-05-13T07:15:26;4.78;;;2.78;;
56927;SDS011;60850;52.502;13.426;2023-05-13T07:17:53;3.40;;;2.55;;
56927;SDS011;60850;52.502;13.426;2023-05-13T07:20:20;3.42;;;2.30;;
56927;SDS011;60850;52.502;13.426;2023-05-13T07:22:53;5.35;;;2.65;;
56927;SDS011;60850;52.502;13.426;2023-05-13T07:25:21;5.00;;;2.53;;
56927;SDS011;60850;52.502;13.426;2023-05-13T07:27:48;2.63;;;2.35;;
56927;SDS011;60850;52.502;13.426;2023-05-13T07:30:15;3.20;;;2.45;;
56927;SDS011;60850;52.502;13.426;2023-05-13T07:32:41;4.43;;;2.10;;
56927;SDS011;60850;52.502;13.426;2023-05-13T07:35:09;5.35;;;2.35;;
56927;SDS011;60850;52.502;13.426;2023-05-13T07:37:36;2.88;;;2.50;;
56927;SDS011;60850;52.502;13.426;2023-05-13T07:40:05;3.70;;;2.05;;
56927;SDS011;60850;52.502;13.426;2023-05-13T07:42:33;6.72;;;2.08;;
56927;SDS011;60850;52.502;13.426;2023-05-13T07:45:00;3.83;;;2.13;;
56927;SDS011;60850;52.502;13.426;2023-05-13T07:47:27;5.40;;;1.85;;
56927;SDS011;60850;52.502;13.426;2023-05-13T07:49:56;2.30;;;1.60;;
56927;SDS011;60850;52.502;13.426;2023-05-13T07:52:22;6.25;;;2.08;;
56927;SDS011;60850;52.502;13.426;2023-05-13T07:54:49;3.45;;;1.50;;
56927;SDS011;60850;52.502;13.426;2023-05-13T07:57:18;4.57;;;1.95;;
56927;SDS011;60850;52.502;13.426;2023-05-13T07:59:45;3.63;;;1.80;;
56927;SDS011;60850;52.502;13.426;2023-05-13T08:02:12;3.42;;;2.10;;
56927;SDS011;60850;52.502;13.426;2023-05-13T08:04:39;7.82;;;2.20;;
56927;SDS011;60850;52.502;13.426;2023-05-13T08:07:05;4.25;;;2.17;;
56927;SDS011;60850;52.502;13.426;2023-05-13T08:09:32;2.63;;;2.28;;
56927;SDS011;60850;52.502;13.426;2023-05-13T08:11:59;3.22;;;2.10;;
56927;SDS011;60850;52.502;13.426;2023-05-13T08:14:27;6.45;;;2.70;;
56927;SDS011;60850;52.502;13.426;2023-05-13T08:16:54;6.38;;;2.53;;
56927;SDS011;60850;52.502;13.426;2023-05-13T08:19:22;7.97;;;2.55;;
56927;SDS011;60850;52.502;13.426;2023-05-13T08:21:48;6.07;;;2.40;;
56927;SDS011;60850;52.502;13.426;2023-05-13T08:24:16;3.17;;;2.40;;
56927;SDS011;60850;52.502;13.426;2023-05-13T08:26:42;3.28;;;2.53;;
56927;SDS011;60850;52.502;13.426;2023-05-13T08:29:09;3.72;;;2.60;;
56927;SDS011;60850;52.502;13.426;2023-05-13T08:31:41;5.18;;;2.83;;
56927;SDS011;60850;52.502;13.426;2023-05-13T08:34:08;3.25;;;2.47;;
56927;SDS011;60850;52.502;13.426;2023-05-13T08:36:35;5.05;;;2.85;;
56927;SDS011;60850;52.502;13.426;2023-05-13T08:39:02;2.80;;;2.40;;
56927;SDS011;60850;52.502;13.426;2023-05-13T08:41:29;3.42;;;2.42;;
56927;SDS011;60850;52.502;13.426;2023-05-13T08:43:57;6.88;;;2.92;;
56927;SDS011;60850;52.502;13.426;2023-05-13T08:46:25;6.60;;;3.00;;
56927;SDS011;60850;52.502;13.426;2023-05-13T08:48:54;3.88;;;2.20;;
56927;SDS011;60850;52.502;13.426;2023-05-13T08:51:22;2.78;;;2.30;;
56927;SDS011;60850;52.502;13.426;2023-05-13T08:53:49;3.53;;;2.35;;
56927;SDS011;60850;52.502;13.426;2023-05-13T08:56:17;4.05;;;2.25;;
56927;SDS011;60850;52.502;13.426;2023-05-13T08:58:46;3.25;;;2.38;;
56927;SDS011;60850;52.502;13.426;2023-05-13T09:01:13;6.72;;;2.58;;
56927;SDS011;60850;52.502;13.426;2023-05-13T09:03:44;4.22;;;2.40;;
56927;SDS011;60850;52.502;13.426;2023-05-13T09:06:19;4.10;;;2.40;;
56927;SDS011;60850;52.502;13.426;2023-05-13T09:08:46;3.65;;;2.40;;
56927;SDS011;60850;52.502;13.426;2023-05-13T09:11:14;3.08;;;2.22;;
56927;SDS011;60850;52.502;13.426;2023-05-13T09:13:41;4.00;;;2.10;;
56927;SDS011;60850;52.502;13.426;2023-05-13T09:16:09;5.82;;;2.60;;
56927;SDS011;60850;52.502;13.426;2023-05-13T09:18:37;4.97;;;2.90;;
56927;SDS011;60850;52.502;13.426;2023-05-13T09:21:24;3.47;;;2.55;;
56927;SDS011;60850;52.502;13.426;2023-05-13T09:24:00;2.85;;;2.17;;
56927;SDS011;60850;52.502;13.426;2023-05-13T09:26:31;4.75;;;2.25;;
56927;SDS011;60850;52.502;13.426;2023-05-13T09:29:13;5.90;;;2.83;;
56927;SDS011;60850;52.502;13.426;2023-05-13T09:31:41;4.20;;;2.28;;
56927;SDS011;60850;52.502;13.426;2023-05-13T09:34:07;6.97;;;2.25;;
56927;SDS011;60850;52.502;13.426;2023-05-13T09:36:36;4.20;;;2.20;;
56927;SDS011;60850;52.502;13.426;2023-05-13T09:39:03;8.30;;;2.85;;
56927;SDS011;60850;52.502;13.426;2023-05-13T09:41:31;5.80;;;2.33;;
56927;SDS011;60850;52.502;13.426;2023-05-13T09:44:01;6.63;;;2.55;;
56927;SDS011;60850;52.502;13.426;2023-05-13T09:46:29;5.40;;;2.45;;
56927;SDS011;60850;52.502;13.426;2023-05-13T09:48:58;2.20;;;1.88;;
56927;SDS011;60850;52.502;13.426;2023-05-13T09:51:26;3.80;;;1.88;;
56927;SDS011;60850;52.502;13.426;2023-05-13T09:54:01;5.57;;;2.20;;
56927;SDS011;60850;52.502;13.426;2023-05-13T09:56:28;5.47;;;2.20;;
56927;SDS011;60850;52.502;13.426;2023-05-13T09:58:56;3.47;;;1.90;;
56927;SDS011;60850;52.502;13.426;2023-05-13T10:01:23;3.33;;;2.10;;
56927;SDS011;60850;52.502;13.426;2023-05-13T10:03:52;3.10;;;2.22;;
56927;SDS011;60850;52.502;13.426;2023-05-13T10:06:20;3.90;;;2.08;;
56927;SDS011;60850;52.502;13.426;2023-05-13T10:08:50;5.13;;;2.33;;
56927;SDS011;60850;52.502;13.426;2023-05-13T10:11:19;3.58;;;1.83;;
56927;SDS011;60850;52.502;13.426;2023-05-13T10:13:48;6.18;;;2.20;;
56927;SDS011;60850;52.502;13.426;2023-05-13T10:16:20;3.53;;;2.10;;
56927;SDS011;60850;52.502;13.426;2023-05-13T10:18:47;4.28;;;2.05;;
56927;SDS011;60850;52.502;13.426;2023-05-13T10:21:14;5.60;;;2.95;;
56927;SDS011;60850;52.502;13.426;2023-05-13T10:23:42;2.92;;;2.58;;
56927;SDS011;60850;52.502;13.426;2023-05-13T10:26:10;4.53;;;2.63;;
56927;SDS011;60850;52.502;13.426;2023-05-13T10:28:39;4.68;;;2.10;;
56927;SDS011;60850;52.502;13.426;2023-05-13T10:31:08;3.65;;;2.03;;
56927;SDS011;60850;52.502;13.426;2023-05-13T10:33:35;7.20;;;2.03;;
56927;SDS011;60850;52.502;13.426;2023-05-13T10:36:07;2.15;;;1.90;;
56927;SDS011;60850;52.502;13.426;2023-05-13T10:38:49;6.32;;;2.38;;
56927;SDS011;60850;52.502;13.426;2023-05-13T10:41:33;4.32;;;2.55;;
56927;SDS011;60850;52.502;13.426;2023-05-13T10:44:22;4.03;;;2.30;;
56927;SDS011;60850;52.502;13.426;2023-05-13T10:46:50;3.72;;;2.22;;
56927;SDS011;60850;52.502;13.426;2023-05-13T10:49:17;3.90;;;2.20;;
56927;SDS011;60850;52.502;13.426;2023-05-13T10:51:44;4.47;;;2.35;;
56927;SDS011;60850;52.502;13.426;2023-05-13T10:54:16;8.18;;;2.65;;
56927;SDS011;60850;52.502;13.426;2023-05-13T10:56:44;3.45;;;2.10;;
56927;SDS011;60850;52.502;13.426;2023-05-13T10:59:12;6.18;;;2.28;;
56927;SDS011;60850;52.502;13.426;2023-05-13T11:01:40;2.95;;;2.00;;
56927;SDS011;60850;52.502;13.426;2023-05-13T11:04:11;5.45;;;2.28;;
56927;SDS011;60850;52.502;13.426;2023-05-13T11:06:40;2.92;;;2.00;;
56927;SDS011;60850;52.502;13.426;2023-05-13T11:09:10;4.50;;;2.40;;
56927;SDS011;60850;52.502;13.426;2023-05-13T11:11:38;5.18;;;2.05;;
56927;SDS011;60850;52.502;13.426;2023-05-13T11:14:13;3.20;;;1.95;;
56927;SDS011;60850;52.502;13.426;2023-05-13T11:16:52;2.97;;;1.92;;
56927;SDS011;60850;52.502;13.426;2023-05-13T11:19:21;2.80;;;2.10;;
56927;SDS011;60850;52.502;13.426;2023-05-13T11:21:52;4.20;;;2.35;;
56927;SDS011;60850;52.502;13.426;2023-05-13T11:24:20;7.22;;;2.10;;
56927;SDS011;60850;52.502;13.426;2023-05-13T11:26:48;4.40;;;2.10;;
56927;SDS011;60850;52.502;13.426;2023-05-13T11:29:25;3.28;;;2.35;;
56927;SDS011;60850;52.502;13.426;2023-05-13T11:31:55;5.63;;;2.00;;
56927;SDS011;60850;52.502;13.426;2023-05-13T11:34:23;8.88;;;2.50;;
56927;SDS011;60850;52.502;13.426;2023-05-13T11:36:55;3.50;;;2.15;;
56927;SDS011;60850;52.502;13.426;2023-05-13T11:39:23;4.10;;;2.10;;
56927;SDS011;60850;52.502;13.426;2023-05-13T11:41:52;8.25;;;4.55;;
56927;SDS011;60850;52.502;13.426;2023-05-13T11:44:20;5.35;;;2.03;;
56927;SDS011;60850;52.502;13.426;2023-05-13T11:46:48;4.72;;;2.33;;
56927;SDS011;60850;52.502;13.426;2023-05-13T11:49:33;3.05;;;1.85;;
56927;SDS011;60850;52.502;13.426;2023-05-13T11:52:04;3.35;;;2.22;;
56927;SDS011;60850;52.502;13.426;2023-05-13T11:54:39;3.95;;;2.10;;
56927;SDS011;60850;52.502;13.426;2023-05-13T11:57:13;3.60;;;2.25;;
56927;SDS011;60850;52.502;13.426;2023-05-13T11:59:40;5.07;;;2.03;;
56927;SDS011;60850;52.502;13.426;2023-05-13T12:02:14;4.45;;;3.10;;
56927;SDS011;60850;52.502;13.426;2023-05-13T12:04:43;4.40;;;1.88;;
56927;SDS011;60850;52.502;13.426;2023-05-13T12:07:10;3.03;;;2.10;;
56927;SDS011;60850;52.502;13.426;2023-05-13T12:09:37;4.30;;;2.05;;
56927;SDS011;60850;52.502;13.426;2023-05-13T12:12:05;4.25;;;2.25;;
56927;SDS011;60850;52.502;13.426;2023-05-13T12:14:32;4.10;;;2.15;;
56927;SDS011;60850;52.502;13.426;2023-05-13T12:16:59;6.93;;;2.78;;
56927;SDS011;60850;52.502;13.426;2023-05-13T12:19:26;3.45;;;1.80;;
56927;SDS011;60850;52.502;13.426;2023-05-13T12:21:55;6.50;;;2.42;;
56927;SDS011;60850;52.502;13.426;2023-05-13T12:24:21;7.97;;;2.08;;
56927;SDS011;60850;52.502;13.426;2023-05-13T12:26:48;4.60;;;1.98;;
56927;SDS011;60850;52.502;13.426;2023-05-13T12:29:15;3.95;;;2.22;;
56927;SDS011;60850;52.502;13.426;2023-05-13T12:32:00;6.82;;;2.30;;
56927;SDS011;60850;52.502;13.426;2023-05-13T12:34:29;3.10;;;2.30;;
56927;SDS011;60850;52.502;13.426;2023-05-13T12:37:07;7.15;;;2.35;;
56927;SDS011;60850;52.502;13.426;2023-05-13T12:39:35;6.68;;;2.25;;
56927;SDS011;60850;52.502;13.426;2023-05-13T12:42:02;6.47;;;2.38;;
56927;SDS011;60850;52.502;13.426;2023-05-13T12:44:29;5.45;;;2.10;;
56927;SDS011;60850;52.502;13.426;2023-05-13T12:46:57;5.05;;;2.38;;
56927;SDS011;60850;52.502;13.426;2023-05-13T12:49:25;8.07;;;2.25;;
56927;SDS011;60850;52.502;13.426;2023-05-13T12:51:53;10.15;;;2.58;;
56927;SDS011;60850;52.502;13.426;2023-05-13T12:54:22;7.30;;;1.92;;
56927;SDS011;60850;52.502;13.426;2023-05-13T12:56:49;4.95;;;2.05;;
56927;SDS011;60850;52.502;13.426;2023-05-13T12:59:17;6.57;;;1.90;;
56927;SDS011;60850;52.502;13.426;2023-05-13T13:01:44;5.35;;;2.10;;
56927;SDS011;60850;52.502;13.426;2023-05-13T13:04:12;3.60;;;2.22;;
56927;SDS011;60850;52.502;13.426;2023-05-13T13:06:40;5.28;;;2.53;;
56927;SDS011;60850;52.502;13.426;2023-05-13T13:09:07;3.58;;;1.80;;
56927;SDS011;60850;52.502;13.426;2023-05-13T13:11:36;5.40;;;2.28;;
56927;SDS011;60850;52.502;13.426;2023-05-13T13:14:03;5.05;;;2.63;;
56927;SDS011;60850;52.502;13.426;2023-05-13T13:16:30;6.95;;;1.85;;
56927;SDS011;60850;52.502;13.426;2023-05-13T13:18:57;3.00;;;2.00;;
56927;SDS011;60850;52.502;13.426;2023-05-13T13:21:25;4.55;;;2.00;;
56927;SDS011;60850;52.502;13.426;2023-05-13T13:23:51;4.43;;;2.35;;
56927;SDS011;60850;52.502;13.426;2023-05-13T13:26:18;8.93;;;2.42;;
56927;SDS011;60850;52.502;13.426;2023-05-13T13:28:47;6.22;;;2.28;;
56927;SDS011;60850;52.502;13.426;2023-05-13T13:31:14;4.57;;;2.30;;
56927;SDS011;60850;52.502;13.426;2023-05-13T13:33:40;13.98;;;2.65;;
56927;SDS011;60850;52.502;13.426;2023-05-13T13:36:07;6.47;;;2.22;;
56927;SDS011;60850;52.502;13.426;2023-05-13T13:38:34;6.13;;;2.20;;
56927;SDS011;60850;52.502;13.426;2023-05-13T13:41:01;7.57;;;2.40;;
56927;SDS011;60850;52.502;13.426;2023-05-13T13:43:28;3.17;;;1.90;;
56927;SDS011;60850;52.502;13.426;2023-05-13T13:45:57;4.43;;;2.20;;
56927;SDS011;60850;52.502;13.426;2023-05-13T13:48:23;7.72;;;2.78;;
56927;SDS011;60850;52.502;13.426;2023-05-13T13:50:50;3.58;;;2.03;;
56927;SDS011;60850;52.502;13.426;2023-05-13T13:53:18;2.25;;;2.00;;
56927;SDS011;60850;52.502;13.426;2023-05-13T13:55:45;4.53;;;1.90;;
56927;SDS011;60850;52.502;13.426;2023-05-13T13:58:12;3.33;;;2.22;;
56927;SDS011;60850;52.502;13.426;2023-05-13T14:00:40;4.22;;;2.38;;
56927;SDS011;60850;52.502;13.426;2023-05-13T14:03:08;5.63;;;2.72;;
56927;SDS011;60850;52.502;13.426;2023-05-13T14:05:35;8.90;;;3.13;;
56927;SDS011;60850;52.502;13.426;2023-05-13T14:08:02;8.13;;;2.63;;
56927;SDS011;60850;52.502;13.426;2023-05-13T14:10:29;7.82;;;2.47;;
56927;SDS011;60850;52.502;13.426;2023-05-13T14:12:55;4.60;;;2.40;;
56927;SDS011;60850;52.502;13.426;2023-05-13T14:15:23;4.53;;;2.38;;
56927;SDS011;60850;52.502;13.426;2023-05-13T14:17:54;7.40;;;2.92;;
56927;SDS011;60850;52.502;13.426;2023-05-13T14:20:22;7.47;;;2.97;;
56927;SDS011;60850;52.502;13.426;2023-05-13T14:22:49;5.57;;;2.97;;
56927;SDS011;60850;52.502;13.426;2023-05-13T14:25:16;4.20;;;2.90;;
56927;SDS011;60850;52.502;13.426;2023-05-13T14:27:43;4.97;;;2.70;;
56927;SDS011;60850;52.502;13.426;2023-05-13T14:30:10;2.75;;;2.40;;
56927;SDS011;60850;52.502;13.426;2023-05-13T14:32:39;3.40;;;2.63;;
56927;SDS011;60850;52.502;13.426;2023-05-13T14:35:09;4.80;;;2.47;;
56927;SDS011;60850;52.502;13.426;2023-05-13T14:37:37;6.50;;;3.03;;
56927;SDS011;60850;52.502;13.426;2023-05-13T14:40:05;4.70;;;2.90;;
56927;SDS011;60850;52.502;13.426;2023-05-13T14:42:33;4.30;;;2.33;;